Time;durP1;ratioP1;P1;durP2;ratioP2;P2;SDS_P1;SDS_P2;PMS_P1;PMS_P2;Temp;Humidity;BMP_temperature;BMP_pressure;BME280_temperature;BME280_humidity;BME280_pressure;Samples;Min_cycle;Max_cycle;Signal;HPM_P1;HPM_P2
2024/01/18 00:00:21;;;;;;;1.50;1.40;;;;;5.00;95809.00;;;;5072590;28;20045;-72
2024/01/18 00:02:47;;;;;;;1.98;1.77;;;;;4.90;95808.00;;;;5074169;28;20045;-72
2024/01/18 00:05:14;;;;;;;1.55;1.45;;;;;4.80;95808.00;;;;5055884;28;20048;-72
2024/01/18 00:07:40;;;;;;;1.50;1.40;;;;;4.70;95806.00;;;;5073005;28;20068;-72
2024/01/18 00:10:07;;;;;;;1.50;1.40;;;;;4.80;95799.00;;;;5073805;28;20041;-72
2024/01/18 00:12:36;;;;;;;1.88;1.67;;;;;4.80;95794.00;;;;5074679;28;20040;-72
2024/01/18 00:15:03;;;;;;;1.35;1.17;;;;;4.90;95803.00;;;;5055629;28;20494;-72
2024/01/18 00:17:30;;;;;;;1.70;1.60;;;;;4.90;95799.00;;;;5072319;28;20056;-73
2024/01/18 00:19:56;;;;;;;1.63;1.52;;;;;4.90;95810.00;;;;5071945;28;20105;-72
2024/01/18 00:22:23;;;;;;;2.05;1.60;;;;;4.80;95811.00;;;;5073555;28;20083;-72
2024/01/18 00:24:50;;;;;;;2.10;1.98;;;;;4.80;95804.00;;;;5072752;28;20060;-72
2024/01/18 00:27:17;;;;;;;1.55;1.45;;;;;4.70;95818.00;;;;5073144;28;20557;-72
2024/01/18 00:29:43;;;;;;;2.00;1.80;;;;;4.70;95817.00;;;;5072997;28;20486;-72
2024/01/18 00:32:10;;;;;;;1.80;1.52;;;;;4.60;95816.00;;;;5056282;28;20056;-72
2024/01/18 00:34:36;;;;;;;1.88;1.75;;;;;4.60;95813.00;;;;5072509;28;20123;-72
2024/01/18 00:37:03;;;;;;;2.55;2.30;;;;;4.60;95810.00;;;;5073050;28;20436;-72
2024/01/18 00:39:30;;;;;;;2.25;2.05;;;;;4.60;95808.00;;;;5073210;28;20536;-72
2024/01/18 00:41:57;;;;;;;1.90;1.80;;;;;4.60;95802.00;;;;5073141;28;20048;-72
2024/01/18 00:44:23;;;;;;;2.65;2.10;;;;;4.50;95816.00;;;;5071919;28;20053;-72
2024/01/18 00:46:51;;;;;;;2.25;2.03;;;;;4.50;95825.00;;;;5055348;28;20044;-72
2024/01/18 00:49:18;;;;;;;2.50;2.30;;;;;4.50;95818.00;;;;5071832;28;20142;-72
2024/01/18 00:51:44;;;;;;;2.50;2.30;;;;;4.40;95819.00;;;;5072862;28;20730;-72
2024/01/18 00:54:11;;;;;;;2.40;2.20;;;;;4.30;95827.00;;;;5070524;28;20049;-72
2024/01/18 00:56:38;;;;;;;2.58;2.38;;;;;4.30;95829.00;;;;5072587;28;20045;-72
2024/01/18 00:59:04;;;;;;;2.60;2.40;;;;;4.30;95835.00;;;;5072218;28;20064;-72
2024/01/18 01:01:31;;;;;;;2.33;2.13;;;;;4.20;95835.00;;;;5071361;28;20169;-72
2024/01/18 01:03:57;;;;;;;2.30;2.13;;;;;4.30;95825.00;;;;5072083;28;20040;-73
2024/01/18 01:06:24;;;;;;;2.63;2.42;;;;;4.30;95830.00;;;;5071273;28;20055;-73
2024/01/18 01:08:50;;;;;;;2.80;2.60;;;;;4.30;95828.00;;;;5072828;28;20040;-73
2024/01/18 01:11:18;;;;;;;2.50;2.30;;;;;4.30;95834.00;;;;5075060;28;20046;-74
2024/01/18 01:13:45;;;;;;;2.50;2.15;;;;;4.30;95830.00;;;;5073682;28;20052;-74
2024/01/18 01:16:11;;;;;;;2.30;2.10;;;;;4.30;95835.00;;;;5076181;28;20047;-74
2024/01/18 01:18:38;;;;;;;2.15;1.98;;;;;4.30;95837.00;;;;5076250;28;20395;-74
2024/01/18 01:21:05;;;;;;;2.33;2.13;;;;;4.30;95847.00;;;;5058174;28;20442;-74
2024/01/18 01:23:32;;;;;;;2.25;2.05;;;;;4.20;95854.00;;;;5074470;28;20041;-74
2024/01/18 01:25:58;;;;;;;2.35;2.15;;;;;4.20;95843.00;;;;5075526;28;20111;-74
2024/01/18 01:28:25;;;;;;;2.38;2.17;;;;;4.30;95856.00;;;;5073744;28;20045;-74
2024/01/18 01:30:51;;;;;;;2.05;1.95;;;;;4.30;95850.00;;;;5075284;28;20052;-74
2024/01/18 01:33:18;;;;;;;2.50;2.30;;;;;4.30;95846.00;;;;5075197;28;20585;-74
2024/01/18 01:35:45;;;;;;;2.90;2.60;;;;;4.10;95858.00;;;;5075150;28;20044;-74
2024/01/18 01:38:12;;;;;;;2.80;2.60;;;;;4.10;95861.00;;;;5057924;28;20102;-74
2024/01/18 01:40:38;;;;;;;2.75;2.55;;;;;4.20;95874.00;;;;5075967;28;20040;-74
2024/01/18 01:43:05;;;;;;;2.42;2.22;;;;;4.20;95863.00;;;;5073883;28;20131;-74
2024/01/18 01:45:31;;;;;;;2.95;2.20;;;;;4.10;95864.00;;;;5073254;28;20443;-74
2024/01/18 01:47:58;;;;;;;2.42;2.22;;;;;4.00;95851.00;;;;5055617;28;20072;-74
2024/01/18 01:50:25;;;;;;;2.30;2.20;;;;;3.90;95854.00;;;;5074769;28;20044;-73
2024/01/18 01:52:52;;;;;;;2.20;2.10;;;;;3.80;95850.00;;;;5074496;28;20063;-73
2024/01/18 01:55:19;;;;;;;2.55;2.35;;;;;3.80;95848.00;;;;5072673;28;20047;-74
2024/01/18 01:57:47;;;;;;;2.40;2.17;;;;;3.80;95858.00;;;;5073564;28;20046;-73
2024/01/18 02:00:15;;;;;;;2.78;2.58;;;;;3.90;95893.00;;;;5072839;28;20045;-74
2024/01/18 02:02:42;;;;;;;3.03;2.80;;;;;4.00;95875.00;;;;5073947;28;20040;-73
2024/01/18 02:05:10;;;;;;;2.50;2.30;;;;;4.00;95878.00;;;;5073347;28;20123;-73
2024/01/18 02:07:37;;;;;;;2.40;2.20;;;;;4.10;95885.00;;;;5076471;28;20075;-73
2024/01/18 02:10:06;;;;;;;2.10;2.00;;;;;4.10;95881.00;;;;5074343;28;20480;-74
2024/01/18 02:12:34;;;;;;;2.70;2.50;;;;;4.20;95876.00;;;;5057745;28;20059;-74
2024/01/18 02:15:01;;;;;;;2.90;2.70;;;;;4.20;95870.00;;;;5074954;28;20048;-73
2024/01/18 02:17:28;;;;;;;2.70;2.50;;;;;4.30;95879.00;;;;5075640;28;20131;-73
2024/01/18 02:19:55;;;;;;;2.90;2.67;;;;;4.40;95885.00;;;;5074338;28;20040;-73
2024/01/18 02:22:26;;;;;;;2.92;2.72;;;;;4.50;95885.00;;;;5074308;28;20131;-73
2024/01/18 02:25:30;;;;;;;2.33;2.13;;;;;4.40;95893.00;;;;5075735;28;20115;-73
2024/01/18 02:27:57;;;;;;;2.53;2.33;;;;;4.20;95893.00;;;;5072002;28;20064;-72
2024/01/18 02:30:24;;;;;;;1.92;1.80;;;;;4.00;95894.00;;;;5075573;28;20033;-72
2024/01/18 02:32:51;;;;;;;1.95;1.80;;;;;3.80;95895.00;;;;5074584;28;20386;-73
2024/01/18 02:35:19;;;;;;;1.60;1.50;;;;;3.70;95884.00;;;;5075289;28;20139;-72
2024/01/18 02:37:46;;;;;;;2.10;1.95;;;;;3.80;95888.00;;;;5074172;28;20095;-72
2024/01/18 02:40:13;;;;;;;1.63;1.52;;;;;3.70;95883.00;;;;5074182;28;20048;-72
2024/01/18 02:42:39;;;;;;;1.70;1.60;;;;;3.50;95868.00;;;;5075343;28;20048;-72
2024/01/18 02:45:06;;;;;;;2.40;2.20;;;;;3.50;95869.00;;;;5073951;28;20080;-72
2024/01/18 02:47:35;;;;;;;1.88;1.77;;;;;3.50;95866.00;;;;5074079;28;20139;-72
2024/01/18 02:50:02;;;;;;;2.00;1.80;;;;;3.30;95853.00;;;;5073782;28;20140;-72
2024/01/18 02:52:29;;;;;;;1.77;1.67;;;;;3.30;95855.00;;;;5073782;28;20044;-72
2024/01/18 02:54:55;;;;;;;1.90;1.80;;;;;3.30;95848.00;;;;5074424;28;20087;-72
2024/01/18 02:57:22;;;;;;;2.00;1.80;;;;;3.30;95853.00;;;;5074983;28;20051;-72
2024/01/18 02:59:48;;;;;;;2.05;1.95;;;;;3.30;95855.00;;;;5074830;28;20045;-73
2024/01/18 03:02:15;;;;;;;2.58;2.25;;;;;3.20;95858.00;;;;5074988;28;20580;-73
2024/01/18 03:04:42;;;;;;;2.15;1.95;;;;;3.30;95857.00;;;;5075068;28;20051;-73
2024/01/18 03:07:09;;;;;;;3.65;2.20;;;;;3.40;95830.00;;;;5073978;28;20045;-72
2024/01/18 03:09:35;;;;;;;2.20;2.00;;;;;3.40;95836.00;;;;5074878;28;20059;-73
2024/01/18 03:12:02;;;;;;;2.38;2.20;;;;;3.40;95839.00;;;;5074821;28;20406;-73
2024/01/18 03:14:29;;;;;;;2.22;2.10;;;;;3.50;95844.00;;;;5074478;28;20048;-73
2024/01/18 03:16:55;;;;;;;2.17;1.98;;;;;3.50;95845.00;;;;5074458;28;20140;-74
2024/01/18 03:19:22;;;;;;;2.60;2.40;;;;;3.50;95859.00;;;;5073502;28;20139;-73
2024/01/18 03:21:49;;;;;;;2.40;2.13;;;;;3.50;95861.00;;;;5075011;28;20041;-74
2024/01/18 03:24:15;;;;;;;2.67;2.20;;;;;3.50;95855.00;;;;5072850;28;20044;-73
2024/01/18 03:26:42;;;;;;;2.55;2.35;;;;;3.50;95860.00;;;;5073348;28;20162;-73
2024/01/18 03:29:09;;;;;;;2.53;2.33;;;;;3.40;95851.00;;;;5074487;28;20048;-73
2024/01/18 03:31:36;;;;;;;2.30;2.10;;;;;3.40;95837.00;;;;5072878;28;20044;-74
2024/01/18 03:34:02;;;;;;;2.20;2.10;;;;;3.20;95847.00;;;;5072494;28;20135;-74
2024/01/18 03:36:29;;;;;;;2.78;2.30;;;;;3.20;95861.00;;;;5073991;28;20040;-73
2024/01/18 03:38:56;;;;;;;2.88;2.67;;;;;3.30;95856.00;;;;5073908;28;20125;-74
2024/01/18 03:41:22;;;;;;;2.60;2.40;;;;;3.20;95854.00;;;;5074085;28;20044;-74
2024/01/18 03:43:49;;;;;;;2.80;2.60;;;;;3.20;95851.00;;;;5073835;28;20047;-74
2024/01/18 03:46:15;;;;;;;2.78;2.58;;;;;3.10;95848.00;;;;5074460;28;20051;-74
2024/01/18 03:48:42;;;;;;;2.40;2.20;;;;;3.10;95846.00;;;;5072811;28;20529;-73
2024/01/18 03:51:09;;;;;;;2.55;2.35;;;;;3.10;95848.00;;;;5074002;28;20041;-74
2024/01/18 03:53:41;;;;;;;2.53;2.33;;;;;3.20;95881.00;;;;5073538;28;20044;-74
2024/01/18 03:56:07;;;;;;;2.47;2.28;;;;;3.30;95888.00;;;;5072560;28;20145;-74
2024/01/18 03:58:36;;;;;;;2.70;2.50;;;;;3.30;95885.00;;;;5072488;28;20044;-74
2024/01/18 04:01:03;;;;;;;2.97;2.65;;;;;3.20;95877.00;;;;5074256;28;20044;-74
2024/01/18 04:03:30;;;;;;;2.55;2.15;;;;;3.20;95879.00;;;;5073363;28;20506;-74
2024/01/18 04:05:56;;;;;;;2.33;2.17;;;;;3.20;95870.00;;;;5073608;28;20127;-75
2024/01/18 04:08:24;;;;;;;2.42;2.22;;;;;3.20;95845.00;;;;5055502;28;20050;-75
2024/01/18 04:10:51;;;;;;;2.70;2.50;;;;;3.10;95851.00;;;;5073256;28;20076;-75
2024/01/18 04:13:18;;;;;;;20.88;11.55;;;;;3.10;95876.00;;;;5072108;28;20053;-74
2024/01/18 04:15:45;;;;;;;9.65;6.13;;;;;3.20;95895.00;;;;5072977;28;20048;-74
2024/01/18 04:18:12;;;;;;;3.58;3.17;;;;;3.40;95886.00;;;;5073449;28;20048;-74
2024/01/18 04:20:39;;;;;;;3.25;2.95;;;;;3.40;95879.00;;;;5071922;28;20139;-75
2024/01/18 04:23:05;;;;;;;2.78;2.58;;;;;3.30;95893.00;;;;5073390;28;20150;-74
2024/01/18 04:25:32;;;;;;;2.78;2.28;;;;;3.30;95892.00;;;;5071374;28;20083;-74
2024/01/18 04:27:58;;;;;;;2.92;2.58;;;;;3.20;95911.00;;;;5072727;28;20048;-74
2024/01/18 04:30:25;;;;;;;3.47;2.90;;;;;3.30;95926.00;;;;5071857;28;20509;-75
2024/01/18 04:32:52;;;;;;;2.92;2.45;;;;;3.30;95888.00;;;;5071773;28;20056;-74
2024/01/18 04:35:19;;;;;;;2.88;2.58;;;;;3.20;95931.00;;;;5072386;28;20044;-75
2024/01/18 04:37:45;;;;;;;3.17;2.03;;;;;3.20;95908.00;;;;5072908;28;20073;-74
2024/01/18 04:40:12;;;;;;;2.50;2.22;;;;;3.10;95924.00;;;;5054989;28;20588;-74
2024/01/18 04:42:39;;;;;;;2.95;2.30;;;;;3.10;95917.00;;;;5072918;28;20044;-74
2024/01/18 04:45:07;;;;;;;3.63;2.28;;;;;3.20;95915.00;;;;5072382;28;20045;-74
2024/01/18 04:47:33;;;;;;;2.50;2.30;;;;;3.00;95919.00;;;;5072631;28;20067;-74
2024/01/18 04:50:00;;;;;;;2.38;2.17;;;;;3.00;95918.00;;;;5054804;28;20049;-74
2024/01/18 04:52:27;;;;;;;2.63;2.40;;;;;3.00;95911.00;;;;5072715;28;20051;-74
2024/01/18 04:54:56;;;;;;;4.38;2.83;;;;;2.90;95905.00;;;;5054111;28;20044;-74
2024/01/18 04:57:22;;;;;;;3.00;2.63;;;;;2.80;95907.00;;;;5071077;28;20055;-74
2024/01/18 04:59:49;;;;;;;3.35;3.05;;;;;2.80;95923.00;;;;5074496;28;20448;-75
2024/01/18 05:02:16;;;;;;;3.10;2.70;;;;;2.80;95922.00;;;;5076367;28;20102;-75
2024/01/18 05:04:43;;;;;;;2.53;2.33;;;;;2.80;95922.00;;;;5075392;28;20490;-75
2024/01/18 05:07:10;;;;;;;29.92;16.15;;;;;2.80;95922.00;;;;5059946;28;20052;-75
2024/01/18 05:09:37;;;;;;;4.20;3.13;;;;;2.90;95917.00;;;;5076917;28;20102;-74
2024/01/18 05:12:04;;;;;;;2.90;2.60;;;;;2.80;95918.00;;;;5076579;28;20076;-75
2024/01/18 05:14:31;;;;;;;3.38;2.90;;;;;2.80;95908.00;;;;5079111;28;20090;-75
2024/01/18 05:17:03;;;;;;;4.25;2.53;;;;;2.70;95912.00;;;;5080467;28;20048;-75
2024/01/18 05:19:30;;;;;;;3.20;2.50;;;;;2.70;95917.00;;;;5090964;28;20213;-75
2024/01/18 05:21:57;;;;;;;2.83;2.60;;;;;2.70;95916.00;;;;5077297;28;20055;-75
2024/01/18 05:24:24;;;;;;;2.60;2.25;;;;;2.70;95920.00;;;;5093332;28;20044;-74
2024/01/18 05:26:50;;;;;;;3.13;2.70;;;;;2.70;95916.00;;;;5094675;28;20068;-74
2024/01/18 05:29:17;;;;;;;3.72;2.45;;;;;2.70;95917.00;;;;5092334;28;20036;-74
2024/01/18 05:31:43;;;;;;;3.72;2.78;;;;;2.60;95916.00;;;;5092995;28;20078;-73
2024/01/18 05:34:10;;;;;;;2.88;2.40;;;;;2.60;95918.00;;;;5090713;28;20047;-72
2024/01/18 05:36:37;;;;;;;3.75;2.60;;;;;2.60;95925.00;;;;5083148;28;20119;-73
2024/01/18 05:39:04;;;;;;;2.40;2.20;;;;;2.60;95924.00;;;;5087439;28;20052;-72
2024/01/18 05:41:30;;;;;;;3.20;2.90;;;;;2.70;95916.00;;;;5089967;28;20048;-72
2024/01/18 05:43:57;;;;;;;2.28;2.08;;;;;2.70;95925.00;;;;5091222;28;20068;-73
2024/01/18 05:46:23;;;;;;;2.40;2.20;;;;;2.60;95916.00;;;;5093954;28;20127;-72
2024/01/18 05:48:50;;;;;;;3.05;2.45;;;;;2.50;95920.00;;;;5095064;28;20100;-73
2024/01/18 05:51:17;;;;;;;2.65;2.45;;;;;2.50;95934.00;;;;5100346;28;20068;-74
2024/01/18 05:53:44;;;;;;;3.30;2.50;;;;;2.60;95935.00;;;;5081862;28;20116;-74
2024/01/18 05:56:10;;;;;;;11.23;6.65;;;;;2.60;95916.00;;;;5080716;28;20049;-73
2024/01/18 05:58:37;;;;;;;2.53;2.20;;;;;2.50;95920.00;;;;5099199;28;20052;-72
2024/01/18 06:01:06;;;;;;;4.32;3.13;;;;;2.40;95933.00;;;;5093226;28;20048;-72
2024/01/18 06:03:32;;;;;;;3.45;3.08;;;;;2.60;95938.00;;;;5082373;28;20080;-73
2024/01/18 06:05:59;;;;;;;5.00;3.83;;;;;2.60;95916.00;;;;5079424;28;20048;-73
2024/01/18 06:08:26;;;;;;;6.50;4.40;;;;;2.50;95934.00;;;;5076193;28;20083;-74
2024/01/18 06:10:53;;;;;;;3.33;2.90;;;;;2.50;95939.00;;;;5077048;28;20123;-73
2024/01/18 06:13:20;;;;;;;3.97;3.00;;;;;2.50;95937.00;;;;5077664;28;20045;-73
2024/01/18 06:15:46;;;;;;;3.72;2.80;;;;;2.40;95938.00;;;;5076829;28;20478;-73
2024/01/18 06:18:14;;;;;;;3.60;2.83;;;;;2.40;95937.00;;;;5076357;28;20049;-74
2024/01/18 06:20:41;;;;;;;2.95;2.45;;;;;2.20;95950.00;;;;5075766;28;20083;-73
2024/01/18 06:23:07;;;;;;;3.10;2.60;;;;;2.20;95951.00;;;;5076723;28;20075;-73
2024/01/18 06:25:34;;;;;;;3.50;2.88;;;;;2.10;95952.00;;;;5058198;28;20141;-74
2024/01/18 06:28:02;;;;;;;3.33;2.80;;;;;2.10;95959.00;;;;5076017;28;20041;-74
2024/01/18 06:30:29;;;;;;;3.72;3.17;;;;;2.10;95953.00;;;;5075328;28;20242;-74
2024/01/18 06:32:56;;;;;;;4.00;2.67;;;;;2.10;95951.00;;;;5075335;28;20049;-75
2024/01/18 06:35:22;;;;;;;3.42;2.67;;;;;2.10;95956.00;;;;5074922;28;20051;-75
2024/01/18 06:37:49;;;;;;;4.10;3.00;;;;;2.10;95960.00;;;;5076322;28;20048;-74
2024/01/18 06:40:17;;;;;;;3.58;3.20;;;;;2.20;95960.00;;;;5058721;28;20147;-75
2024/01/18 06:42:44;;;;;;;3.10;2.80;;;;;2.20;95959.00;;;;5076303;28;20062;-73
2024/01/18 06:45:11;;;;;;;5.38;3.10;;;;;2.10;95957.00;;;;5074705;28;20148;-73
2024/01/18 06:47:37;;;;;;;4.03;3.33;;;;;2.10;95963.00;;;;5075165;28;20045;-74
2024/01/18 06:50:04;;;;;;;4.28;3.55;;;;;2.00;95970.00;;;;5075200;28;20044;-74
2024/01/18 06:52:31;;;;;;;9.25;6.30;;;;;2.00;95984.00;;;;5073749;28;20090;-75
2024/01/18 06:54:58;;;;;;;6.78;4.43;;;;;2.00;95983.00;;;;5074434;28;20040;-74
2024/01/18 06:57:24;;;;;;;3.75;2.90;;;;;1.90;95985.00;;;;5074012;28;20051;-74
2024/01/18 06:59:52;;;;;;;2.85;2.50;;;;;1.90;95983.00;;;;5057789;28;20052;-74
2024/01/18 07:02:21;;;;;;;2.90;2.60;;;;;1.80;95999.00;;;;5074159;28;20123;-75
2024/01/18 07:04:48;;;;;;;3.28;2.97;;;;;1.80;96002.00;;;;5057383;28;20040;-74
2024/01/18 07:07:14;;;;;;;3.03;2.30;;;;;1.70;96016.00;;;;5075190;28;20075;-74
2024/01/18 07:09:41;;;;;;;2.15;1.95;;;;;1.70;96011.00;;;;5073791;28;20052;-74
2024/01/18 07:12:09;;;;;;;2.83;2.50;;;;;1.60;96017.00;;;;5075079;28;20123;-75
2024/01/18 07:14:36;;;;;;;4.63;2.70;;;;;1.60;96033.00;;;;5075009;28;20041;-74
2024/01/18 07:17:03;;;;;;;2.55;2.20;;;;;1.70;96028.00;;;;5073927;28;20086;-74
2024/01/18 07:19:29;;;;;;;2.42;2.22;;;;;1.70;96040.00;;;;5075438;28;20044;-74
2024/01/18 07:21:56;;;;;;;1.85;1.75;;;;;1.70;96041.00;;;;5074014;28;20053;-73
2024/01/18 07:24:22;;;;;;;2.42;2.10;;;;;1.80;96034.00;;;;5074916;28;20048;-74
2024/01/18 07:26:49;;;;;;;1.73;1.63;;;;;1.70;96038.00;;;;5075807;28;20127;-73
2024/01/18 07:29:16;;;;;;;2.03;1.77;;;;;1.70;96052.00;;;;5073978;28;20047;-74
2024/01/18 07:31:43;;;;;;;1.40;1.30;;;;;1.60;96050.00;;;;5072945;28;20490;-71
2024/01/18 07:34:15;;;;;;;1.60;1.38;;;;;1.70;96049.00;;;;5073994;28;20048;-72
2024/01/18 07:36:43;;;;;;;1.52;1.33;;;;;1.60;96047.00;;;;5074446;28;20128;-70
2024/01/18 07:39:10;;;;;;;1.50;1.40;;;;;1.40;96054.00;;;;5076650;28;20048;-72
2024/01/18 07:41:37;;;;;;;2.40;1.20;;;;;1.30;96052.00;;;;5077739;28;20049;-72
2024/01/18 07:44:03;;;;;;;2.92;1.30;;;;;1.30;96066.00;;;;5075755;28;20084;-72
2024/01/18 07:46:30;;;;;;;2.17;1.83;;;;;1.30;96067.00;;;;5080164;28;20044;-71
2024/01/18 07:48:57;;;;;;;1.83;1.17;;;;;1.30;96076.00;;;;5078077;28;20123;-72
2024/01/18 07:51:24;;;;;;;1.80;1.50;;;;;1.30;96078.00;;;;5077146;28;20409;-72
2024/01/18 07:53:50;;;;;;;1.25;1.17;;;;;1.30;96075.00;;;;5076419;28;20048;-71
2024/01/18 07:56:17;;;;;;;2.40;1.30;;;;;1.50;96087.00;;;;5078309;28;20127;-73
2024/01/18 07:58:44;;;;;;;1.50;1.40;;;;;1.70;96091.00;;;;5082618;28;20536;-73
2024/01/18 08:01:10;;;;;;;2.10;1.63;;;;;1.60;96088.00;;;;5076642;28;20413;-71
2024/01/18 08:03:37;;;;;;;1.73;1.30;;;;;1.60;96091.00;;;;5074306;28;20048;-72
2024/01/18 08:06:06;;;;;;;2.50;1.50;;;;;1.40;96089.00;;;;5076821;28;20072;-73
2024/01/18 08:08:33;;;;;;;1.75;1.00;;;;;1.30;96101.00;;;;5073530;28;20519;-73
2024/01/18 08:10:59;;;;;;;1.20;1.10;;;;;1.30;96109.00;;;;5073988;28;20055;-72
2024/01/18 08:13:26;;;;;;;2.00;1.17;;;;;1.30;96120.00;;;;5056762;28;20503;-72
2024/01/18 08:15:56;;;;;;;1.00;0.98;;;;;1.20;96112.00;;;;5076612;28;20497;-72
2024/01/18 08:18:23;;;;;;;1.27;1.08;;;;;1.00;96099.00;;;;5077959;28;20113;-72
2024/01/18 08:20:50;;;;;;;2.60;1.10;;;;;1.00;96101.00;;;;5079720;28;20116;-73
2024/01/18 08:23:17;;;;;;;3.47;1.42;;;;;0.90;96107.00;;;;5083813;28;20036;-72
2024/01/18 08:25:44;;;;;;;2.58;1.27;;;;;0.90;96115.00;;;;5096290;28;20058;-73
2024/01/18 08:28:13;;;;;;;2.03;1.35;;;;;0.90;96114.00;;;;5097464;28;20028;-73
2024/01/18 08:30:40;;;;;;;3.65;1.60;;;;;1.00;96122.00;;;;5096991;28;20067;-71
2024/01/18 08:33:10;;;;;;;1.92;1.20;;;;;0.90;96129.00;;;;5079127;28;20033;-70
2024/01/18 08:35:37;;;;;;;1.80;1.65;;;;;0.90;96149.00;;;;5093705;28;20092;-70
2024/01/18 08:38:04;;;;;;;4.40;1.52;;;;;1.00;96147.00;;;;5095998;28;20112;-71
2024/01/18 08:40:31;;;;;;;1.70;1.50;;;;;1.00;96161.00;;;;5094493;28;20040;-69
2024/01/18 08:42:59;;;;;;;1.77;1.40;;;;;1.00;96168.00;;;;5075984;28;20068;-69
2024/01/18 08:45:26;;;;;;;2.05;1.75;;;;;1.10;96180.00;;;;5073108;28;20497;-69
2024/01/18 08:47:53;;;;;;;2.55;2.20;;;;;1.10;96172.00;;;;5072136;28;20051;-69
2024/01/18 08:50:20;;;;;;;1.65;1.45;;;;;1.10;96193.00;;;;5072999;28;20104;-69
2024/01/18 08:52:51;;;;;;;2.65;2.03;;;;;1.10;96190.00;;;;5071529;28;20046;-69
2024/01/18 08:55:18;;;;;;;1.90;1.65;;;;;1.10;96197.00;;;;5072028;28;20076;-71
2024/01/18 08:57:45;;;;;;;2.53;1.85;;;;;1.00;96191.00;;;;5072731;28;20460;-67
2024/01/18 09:00:13;;;;;;;2.03;1.80;;;;;1.00;96206.00;;;;5072437;28;20070;-66
2024/01/18 09:02:40;;;;;;;2.60;2.20;;;;;0.90;96201.00;;;;5071428;28;20392;-67
2024/01/18 09:05:07;;;;;;;2.90;1.75;;;;;0.90;96201.00;;;;5070822;28;20460;-68
2024/01/18 09:07:34;;;;;;;2.25;2.00;;;;;1.00;96198.00;;;;5072349;28;20059;-68
2024/01/18 09:10:01;;;;;;;2.58;2.20;;;;;1.00;96201.00;;;;5072414;28;20044;-68
2024/01/18 09:12:28;;;;;;;2.95;2.25;;;;;0.90;96198.00;;;;5054420;28;20047;-68
2024/01/18 09:14:55;;;;;;;3.05;2.10;;;;;0.90;96196.00;;;;5072082;28;20461;-69
2024/01/18 09:17:21;;;;;;;2.05;1.92;;;;;1.00;96211.00;;;;5073401;28;20044;-68
2024/01/18 09:19:48;;;;;;;3.60;2.30;;;;;1.10;96218.00;;;;5071882;28;20052;-68
2024/01/18 09:22:15;;;;;;;4.55;2.40;;;;;1.10;96232.00;;;;5071876;28;20083;-67
2024/01/18 09:24:42;;;;;;;2.35;2.00;;;;;1.10;96221.00;;;;5071705;28;20403;-69
2024/01/18 09:27:12;;;;;;;2.83;2.28;;;;;1.20;96240.00;;;;5072455;28;20052;-69
2024/01/18 09:29:39;;;;;;;3.03;2.15;;;;;1.50;96248.00;;;;5071966;28;20565;-69
2024/01/18 09:32:08;;;;;;;3.55;2.47;;;;;1.50;96251.00;;;;5072417;28;20051;-69
2024/01/18 09:34:35;;;;;;;2.55;1.88;;;;;1.60;96253.00;;;;5070787;28;20499;-68
2024/01/18 09:37:02;;;;;;;2.20;1.95;;;;;1.50;96270.00;;;;5072386;28;20401;-68
2024/01/18 09:39:29;;;;;;;2.58;2.22;;;;;1.50;96275.00;;;;5071688;28;20052;-68
2024/01/18 09:41:56;;;;;;;2.67;2.25;;;;;1.60;96265.00;;;;5071344;28;20052;-69
2024/01/18 09:44:25;;;;;;;3.08;2.15;;;;;1.70;96287.00;;;;5071272;28;20044;-68
2024/01/18 09:46:53;;;;;;;3.53;2.65;;;;;1.70;96297.00;;;;5071674;28;20083;-68
2024/01/18 09:49:20;;;;;;;2.38;2.08;;;;;1.80;96306.00;;;;5072222;28;20040;-68
2024/01/18 09:51:47;;;;;;;3.00;2.30;;;;;1.90;96318.00;;;;5072488;28;20073;-69
2024/01/18 09:54:14;;;;;;;2.80;2.30;;;;;2.00;96326.00;;;;5070124;28;20048;-68
2024/01/18 09:56:45;;;;;;;2.45;2.25;;;;;2.00;96333.00;;;;5072138;28;20119;-67
2024/01/18 09:59:17;;;;;;;3.55;2.55;;;;;1.90;96329.00;;;;5071914;28;20161;-68
2024/01/18 10:01:45;;;;;;;2.50;2.20;;;;;1.90;96340.00;;;;5070687;28;20048;-68
2024/01/18 10:04:13;;;;;;;2.58;2.38;;;;;2.00;96343.00;;;;5071570;28;20497;-69
2024/01/18 10:06:43;;;;;;;3.97;2.80;;;;;1.90;96333.00;;;;5071333;28;20048;-69
2024/01/18 10:09:10;;;;;;;3.28;2.58;;;;;1.80;96347.00;;;;5070809;28;20044;-68
2024/01/18 10:11:37;;;;;;;3.70;2.90;;;;;1.80;96346.00;;;;5072158;28;20048;-76
2024/01/18 10:14:04;;;;;;;4.32;3.08;;;;;2.00;96365.00;;;;5070085;28;20120;-68
2024/01/18 10:16:32;;;;;;;3.70;2.58;;;;;2.10;96362.00;;;;5072000;28;20044;-69
2024/01/18 10:19:01;;;;;;;3.25;2.85;;;;;2.00;96354.00;;;;5070757;28;20053;-69
2024/01/18 10:21:31;;;;;;;4.35;2.67;;;;;2.10;96361.00;;;;5070551;28;20131;-69
2024/01/18 10:23:58;;;;;;;3.00;2.70;;;;;2.40;96374.00;;;;5070161;28;20453;-67
2024/01/18 10:26:31;;;;;;;4.22;2.80;;;;;2.40;96389.00;;;;5073311;28;20044;-67
2024/01/18 10:28:58;;;;;;;3.50;2.97;;;;;2.50;96396.00;;;;5074077;28;20132;-68
2024/01/18 10:31:28;;;;;;;4.47;3.10;;;;;2.40;96391.00;;;;5075570;28;20079;-67
2024/01/18 10:33:55;;;;;;;3.85;3.28;;;;;2.30;96391.00;;;;5073533;28;20072;-68
2024/01/18 10:36:22;;;;;;;5.20;2.92;;;;;2.40;96410.00;;;;5075273;28;20096;-69
2024/01/18 10:38:49;;;;;;;3.85;3.05;;;;;2.50;96402.00;;;;5073808;28;20102;-69
2024/01/18 10:41:19;;;;;;;4.80;3.40;;;;;2.30;96405.00;;;;5075142;28;20116;-69
2024/01/18 10:43:48;;;;;;;5.05;3.55;;;;;2.40;96414.00;;;;5075316;28;20371;-69
2024/01/18 10:46:14;;;;;;;4.05;3.65;;;;;2.40;96407.00;;;;5057646;28;20094;-68
2024/01/18 10:48:46;;;;;;;4.97;3.22;;;;;2.40;96413.00;;;;5057417;28;20059;-68
2024/01/18 10:51:14;;;;;;;3.55;3.13;;;;;2.40;96420.00;;;;5074092;28;20046;-68
2024/01/18 10:53:41;;;;;;;7.35;4.38;;;;;2.50;96422.00;;;;5073078;28;20041;-68
2024/01/18 10:56:08;;;;;;;5.03;3.30;;;;;2.60;96430.00;;;;5073649;28;20071;-63
2024/01/18 10:58:35;;;;;;;4.18;2.95;;;;;2.80;96447.00;;;;5073084;28;20056;-63
2024/01/18 11:01:03;;;;;;;6.30;3.13;;;;;2.80;96452.00;;;;5074516;28;20098;-67
2024/01/18 11:03:31;;;;;;;7.93;6.05;;;;;2.80;96463.00;;;;5074052;28;20116;-66
2024/01/18 11:06:00;;;;;;;5.68;4.07;;;;;2.90;96472.00;;;;5073270;28;20041;-66
2024/01/18 11:08:28;;;;;;;4.70;2.85;;;;;3.00;96468.00;;;;5074489;28;20041;-66
2024/01/18 11:10:55;;;;;;;3.92;3.00;;;;;3.00;96463.00;;;;5074951;28;20076;-66
2024/01/18 11:13:22;;;;;;;3.95;2.72;;;;;3.00;96464.00;;;;5074665;28;20131;-69
2024/01/18 11:15:52;;;;;;;4.03;3.08;;;;;2.90;96473.00;;;;5074017;28;20043;-66
2024/01/18 11:18:21;;;;;;;4.47;2.90;;;;;2.90;96473.00;;;;5074664;28;20044;-66
2024/01/18 11:20:57;;;;;;;5.00;3.20;;;;;2.90;96492.00;;;;5074070;28;20067;-66
2024/01/18 11:23:42;;;;;;;4.72;3.42;;;;;2.90;96503.00;;;;5072210;28;20048;-66
2024/01/18 11:26:20;;;;;;;4.93;3.17;;;;;2.80;96498.00;;;;5073938;28;20040;-65
2024/01/18 11:28:47;;;;;;;4.45;3.03;;;;;2.70;96492.00;;;;5073947;28;20044;-66
2024/01/18 11:31:14;;;;;;;3.25;2.90;;;;;2.60;96493.00;;;;5074100;28;20048;-66
2024/01/18 11:33:40;;;;;;;5.18;3.03;;;;;2.60;96513.00;;;;5073110;28;20041;-66
2024/01/18 11:36:11;;;;;;;5.53;3.38;;;;;2.80;96522.00;;;;5073966;28;20370;-66
2024/01/18 11:38:48;;;;;;;4.25;3.20;;;;;2.90;96518.00;;;;5073646;28;20048;-66
2024/01/18 11:41:22;;;;;;;4.10;3.50;;;;;3.00;96522.00;;;;5073631;28;20048;-66
2024/01/18 11:44:00;;;;;;;3.72;3.20;;;;;3.10;96529.00;;;;5071905;28;20047;-66
2024/01/18 11:46:39;;;;;;;5.93;3.83;;;;;3.00;96534.00;;;;5073745;28;20098;-66
2024/01/18 11:49:07;;;;;;;6.35;4.15;;;;;2.90;96544.00;;;;5055469;28;20088;-66
2024/01/18 11:51:35;;;;;;;6.38;3.92;;;;;2.90;96553.00;;;;5072205;28;20114;-66
2024/01/18 11:54:02;;;;;;;5.32;3.60;;;;;3.00;96551.00;;;;5073039;28;20071;-66
2024/01/18 11:56:29;;;;;;;7.30;4.05;;;;;3.10;96562.00;;;;5072449;28;20102;-66
2024/01/18 11:58:57;;;;;;;5.25;3.83;;;;;3.20;96563.00;;;;5072269;28;20051;-66
2024/01/18 12:01:27;;;;;;;5.25;4.03;;;;;3.20;96583.00;;;;5073208;28;20060;-66
2024/01/18 12:03:54;;;;;;;5.45;4.40;;;;;3.20;96584.00;;;;5072610;28;20033;-66
2024/01/18 12:06:26;;;;;;;12.18;4.78;;;;;3.50;96596.00;;;;5073572;28;20455;-66
2024/01/18 12:08:53;;;;;;;8.07;4.72;;;;;3.70;96597.00;;;;5074695;28;20050;-66
2024/01/18 12:11:20;;;;;;;6.07;4.55;;;;;3.70;96604.00;;;;5074143;28;20052;-67
2024/01/18 12:13:47;;;;;;;6.15;4.53;;;;;3.60;96608.00;;;;5073844;28;20037;-66
2024/01/18 12:16:14;;;;;;;6.60;4.28;;;;;3.40;96615.00;;;;5073508;28;20143;-66
2024/01/18 12:18:43;;;;;;;7.50;4.53;;;;;3.50;96629.00;;;;5074440;28;20507;-67
2024/01/18 12:21:10;;;;;;;7.35;4.75;;;;;3.40;96634.00;;;;5073597;28;20047;-66
2024/01/18 12:23:37;;;;;;;8.13;5.15;;;;;3.40;96645.00;;;;5072342;28;20045;-66
2024/01/18 12:26:04;;;;;;;7.18;5.00;;;;;3.40;96645.00;;;;5073300;28;20064;-65